Ibiuna, Brazil
Current Conditions -  °F | °C
As of 6:44 PM on Tuesday 25 Nov 2014 (Local Time) from SBSP Reporting Station
Thunderstorm Thunderstorm  
Wind Chill: 73°   Ceiling: 1700
Heat Index: 73°   Visibility: 6mi
Dew Point: 66°   Wind: 10mph
Humidity: 78%   Direction: 60°ENE
Pressure: 29.88"   Gusts: NA
Location:  23.65°S, 47.22°W
Report Text: SBSP 252044Z 06009KT 020V120 9000 3000NE TSRA BKN017 FEW040CB BKN045 23/19 Q1012
Loading
Personal Weather Stations






























Interactive Weather Map New forecast layout! Learn more

10-Day Weather Forecast

Advertisements
Track Severe Weather on mobile